CheckWX is a tool to help pilots better visualize weather data.  It is not intended as a substitute for an official pre-flight weather briefing.

21:14:04 UTC

CYPX METAR
Puvirnituq Airport
Puvirnituq, Canada
Current

14 mins ago

CYPX 232100Z AUTO 18013KT 5SM -SN FEW019 SCT027 BKN240 M19/M21 A3000 RMK SLP164
Observed
Feb-23 @ 21:00 UTC
Wind
  • 180° at 13 KTS
Visibility
5 SM
Flight Rules
MVFR
Conditions
Light Snow
Cloud Levels
  • Few at 1,900' AGL
  • Scattered at 2,700' AGL
  • Broken at 24,000' AGL
Temperature
-19°C / -2°F
Dewpoint
-21°C / -6°F
Humidity
84%
Altimeter
30" Hg
Pressure
1016.4 hPa
Previous

57 mins ago

CYPX 232017Z AUTO 19014KT 5SM -SN SCT014 SCT230 M20/M22 A3001 RMK SLP167
Observed
Feb-23 @ 20:17 UTC
Wind
  • 190° at 14 KTS
Visibility
5 SM
Flight Rules
MVFR
Conditions
Light Snow
Cloud Levels
  • Scattered at 1,400' AGL
  • Scattered at 23,000' AGL
Temperature
-20°C / -4°F
Dewpoint
-22°C / -8°F
Humidity
84%
Altimeter
30.01" Hg
Pressure
1016.7 hPa
Previous

1 hour ago

CYPX 232000Z AUTO 19015KT 4SM -SN FEW019 M19/M21 A3001 RMK SLP166
Observed
Feb-23 @ 20:00 UTC
Wind
  • 190° at 15 KTS
Visibility
4 SM
Flight Rules
MVFR
Conditions
Light Snow
Cloud Levels
  • Few at 1,900' AGL
Temperature
-19°C / -2°F
Dewpoint
-21°C / -6°F
Humidity
84%
Altimeter
30.01" Hg
Pressure
1016.6 hPa